Time;durP1;ratioP1;P1;durP2;ratioP2;P2;SDS_P1;SDS_P2;PMS_P1;PMS_P2;Temp;Humidity;BMP_temperature;BMP_pressure;BME280_temperature;BME280_humidity;BME280_pressure;Samples;Min_cycle;Max_cycle;Signal;HPM_P1;HPM_P2
2022/10/21 00:00:30;;;;;;;20.42;15.48;;;12.00;99.90;;;;;;5072452;28;20475;-68
2022/10/21 00:02:56;;;;;;;25.15;16.42;;;12.00;99.90;;;;;;5069881;28;20052;-69
2022/10/21 00:05:22;;;;;;;25.35;17.23;;;12.00;99.90;;;;;;5072406;28;20119;-69
2022/10/21 00:07:48;;;;;;;23.55;16.42;;;12.00;99.90;;;;;;5071377;28;20128;-68
2022/10/21 00:10:13;;;;;;;22.38;16.15;;;12.00;99.90;;;;;;5070675;28;20052;-69
2022/10/21 00:12:39;;;;;;;22.67;16.33;;;12.00;99.90;;;;;;5070953;28;20035;-70
2022/10/21 00:15:07;;;;;;;24.35;16.08;;;12.00;99.90;;;;;;5068085;28;20040;-69
2022/10/21 00:17:37;;;;;;;25.48;15.85;;;12.00;99.90;;;;;;5072757;28;20050;-69
2022/10/21 00:20:05;;;;;;;20.42;15.65;;;12.00;99.90;;;;;;5070212;28;20044;-68
2022/10/21 00:22:31;;;;;;;21.23;14.60;;;12.00;99.90;;;;;;5054907;28;20406;-70
2022/10/21 00:24:57;;;;;;;19.60;14.90;;;11.90;99.90;;;;;;5072262;28;20047;-69
2022/10/21 00:27:22;;;;;;;24.63;16.58;;;11.90;99.90;;;;;;5068805;28;20047;-68
2022/10/21 00:29:48;;;;;;;20.42;15.88;;;11.90;99.90;;;;;;5071822;28;20040;-68
2022/10/21 00:32:14;;;;;;;24.85;16.08;;;11.90;99.90;;;;;;5071321;28;20065;-70
2022/10/21 00:34:42;;;;;;;24.63;17.17;;;11.90;99.90;;;;;;5072006;28;20035;-69
2022/10/21 00:37:09;;;;;;;22.50;15.68;;;11.90;99.90;;;;;;5069687;28;20090;-69
2022/10/21 00:39:35;;;;;;;23.85;16.48;;;11.90;99.90;;;;;;5071842;28;20044;-69
2022/10/21 00:42:01;;;;;;;22.75;16.83;;;11.80;99.90;;;;;;5070348;28;20031;-67
2022/10/21 00:44:26;;;;;;;29.98;16.02;;;11.80;99.90;;;;;;5052343;28;20499;-69
2022/10/21 00:47:03;;;;;;;22.38;17.25;;;11.80;99.90;;;;;;5073258;28;20043;-68
2022/10/21 00:49:43;;;;;;;25.48;16.60;;;11.80;99.90;;;;;;5072288;28;20040;-69
2022/10/21 00:52:16;;;;;;;26.25;17.23;;;11.80;99.90;;;;;;5103355;28;20460;-68
2022/10/21 00:54:43;;;;;;;23.85;17.13;;;11.80;99.90;;;;;;5073900;28;20074;-66
2022/10/21 00:57:10;;;;;;;24.25;16.90;;;11.80;99.90;;;;;;5073611;28;20751;-69
2022/10/21 00:59:41;;;;;;;25.35;17.33;;;11.80;99.90;;;;;;5070684;28;20042;-69
2022/10/21 01:02:07;;;;;;;23.13;16.67;;;11.80;99.90;;;;;;5072058;28;20060;-69
2022/10/21 01:04:33;;;;;;;25.02;18.05;;;11.80;99.90;;;;;;5071012;28;20035;-69
2022/10/21 01:07:00;;;;;;;24.35;17.35;;;11.80;99.90;;;;;;5056497;28;20051;-69
2022/10/21 01:09:27;;;;;;;23.88;17.88;;;11.80;99.90;;;;;;5072454;28;20052;-68
2022/10/21 01:11:53;;;;;;;24.88;17.27;;;11.80;99.90;;;;;;5071527;28;20035;-67
2022/10/21 01:14:21;;;;;;;25.88;17.88;;;11.80;99.90;;;;;;5070706;28;20032;-68
2022/10/21 01:16:58;;;;;;;28.92;17.63;;;11.80;99.90;;;;;;5071559;28;20371;-68
2022/10/21 01:19:50;;;;;;;23.10;16.92;;;11.80;99.90;;;;;;5072703;28;20040;-68
2022/10/21 01:22:34;;;;;;;21.98;17.52;;;11.80;99.90;;;;;;5071732;28;20040;-68
2022/10/21 01:25:08;;;;;;;25.13;16.60;;;11.80;99.90;;;;;;5071330;28;20410;-68
2022/10/21 01:27:59;;;;;;;25.77;18.02;;;11.80;99.90;;;;;;5072410;28;20490;-67
2022/10/21 01:31:09;;;;;;;24.92;17.75;;;11.80;99.90;;;;;;5071416;28;20483;-68
2022/10/21 01:33:55;;;;;;;24.10;17.02;;;11.80;99.90;;;;;;4973988;28;20513;-67
2022/10/21 01:36:41;;;;;;;24.63;17.80;;;11.90;99.90;;;;;;4973075;28;20177;-68
2022/10/21 01:39:45;;;;;;;21.98;16.50;;;11.90;99.90;;;;;;4956089;28;20053;-69
2022/10/21 01:42:53;;;;;;;27.45;17.70;;;11.90;99.90;;;;;;4897531;29;20058;-68
2022/10/21 01:45:30;;;;;;;24.17;16.83;;;12.00;99.90;;;;;;4885320;29;20096;-70
2022/10/21 01:48:01;;;;;;;27.00;18.08;;;12.00;99.90;;;;;;4877143;29;20057;-69
2022/10/21 01:50:32;;;;;;;29.15;16.95;;;12.00;99.90;;;;;;4874720;29;20520;-69
2022/10/21 01:53:03;;;;;;;25.23;17.33;;;12.10;99.90;;;;;;4877133;29;20465;-68
2022/10/21 01:55:31;;;;;;;23.00;16.60;;;12.10;99.90;;;;;;4873347;29;20451;-68
2022/10/21 01:58:09;;;;;;;23.15;16.27;;;12.10;99.90;;;;;;4860294;29;20095;-68
2022/10/21 02:00:36;;;;;;;24.42;17.50;;;12.10;99.90;;;;;;4875805;29;20448;-70
2022/10/21 02:03:07;;;;;;;23.13;16.73;;;12.10;99.90;;;;;;4873548;28;20056;-68
2022/10/21 02:05:34;;;;;;;24.02;17.90;;;12.20;99.90;;;;;;4952110;28;20058;-69
2022/10/21 02:08:00;;;;;;;24.90;17.42;;;12.20;99.90;;;;;;4936626;28;20580;-67
2022/10/21 02:10:30;;;;;;;25.65;17.73;;;12.20;99.90;;;;;;4967870;28;20086;-68
2022/10/21 02:12:59;;;;;;;26.52;17.45;;;12.20;99.90;;;;;;4968035;28;20076;-67
2022/10/21 02:15:26;;;;;;;28.23;18.30;;;12.30;99.90;;;;;;4952111;28;20564;-68
2022/10/21 02:18:03;;;;;;;28.95;18.20;;;12.30;99.90;;;;;;4959654;28;20046;-68
2022/10/21 02:20:34;;;;;;;32.17;19.08;;;12.30;99.90;;;;;;5015409;28;20113;-69
2022/10/21 02:23:02;;;;;;;30.70;18.70;;;12.30;99.90;;;;;;5051590;28;20441;-69
2022/10/21 02:25:31;;;;;;;28.10;17.83;;;12.40;99.90;;;;;;5050872;28;20029;-67
2022/10/21 02:27:56;;;;;;;28.35;17.88;;;12.40;99.90;;;;;;5050328;28;20052;-68
2022/10/21 02:30:22;;;;;;;31.00;19.02;;;12.40;99.90;;;;;;5050715;28;20376;-67
2022/10/21 02:33:03;;;;;;;25.63;17.35;;;12.40;99.90;;;;;;5050135;28;20037;-69
2022/10/21 02:35:39;;;;;;;28.98;18.98;;;12.40;99.90;;;;;;5051585;28;20047;-68
2022/10/21 02:38:09;;;;;;;24.88;18.60;;;12.40;99.90;;;;;;5051564;28;20044;-67
2022/10/21 02:40:51;;;;;;;27.48;19.30;;;12.40;99.90;;;;;;5049500;28;20083;-70
2022/10/21 02:43:43;;;;;;;25.87;17.83;;;12.40;99.90;;;;;;5053499;28;20037;-69
2022/10/21 02:46:10;;;;;;;29.45;18.90;;;12.50;99.90;;;;;;5049399;28;20314;-68
2022/10/21 02:48:38;;;;;;;29.00;17.92;;;12.50;99.90;;;;;;5052033;28;20055;-68
2022/10/21 02:51:06;;;;;;;25.08;17.52;;;12.50;99.90;;;;;;5053943;28;20048;-69
2022/10/21 02:53:32;;;;;;;25.80;18.20;;;12.50;99.90;;;;;;5055025;28;20045;-68
2022/10/21 02:55:58;;;;;;;33.42;19.48;;;12.50;99.90;;;;;;5053841;28;20048;-68
2022/10/21 02:58:24;;;;;;;25.48;18.75;;;12.50;99.90;;;;;;5053281;28;20044;-68
2022/10/21 03:00:50;;;;;;;24.63;17.70;;;12.50;99.90;;;;;;5037344;28;20106;-67
2022/10/21 03:03:15;;;;;;;25.08;17.75;;;12.50;99.90;;;;;;5052972;28;20529;-68
2022/10/21 03:05:41;;;;;;;24.73;18.05;;;12.50;99.90;;;;;;5054267;28;20453;-68
2022/10/21 03:08:07;;;;;;;22.60;17.60;;;12.50;99.90;;;;;;5054641;28;20048;-69
2022/10/21 03:10:32;;;;;;;21.15;17.20;;;12.50;99.90;;;;;;5056212;28;20032;-69
2022/10/21 03:12:58;;;;;;;25.10;17.70;;;12.50;99.90;;;;;;5036819;28;20048;-67
2022/10/21 03:15:24;;;;;;;24.42;17.00;;;12.50;99.90;;;;;;5036187;28;20055;-68
2022/10/21 03:17:49;;;;;;;24.95;16.95;;;12.50;99.90;;;;;;5052337;28;20032;-68
2022/10/21 03:20:15;;;;;;;21.80;16.65;;;12.50;99.90;;;;;;5070474;28;20055;-68
2022/10/21 03:22:42;;;;;;;21.08;16.45;;;12.50;99.90;;;;;;5054582;28;20512;-68
2022/10/21 03:25:09;;;;;;;20.77;15.98;;;12.50;99.90;;;;;;5054688;28;20115;-70
2022/10/21 03:27:35;;;;;;;21.92;16.20;;;12.50;99.90;;;;;;5054895;28;20040;-69
2022/10/21 03:30:01;;;;;;;23.77;16.83;;;12.50;99.90;;;;;;5036986;28;20032;-68
2022/10/21 03:32:27;;;;;;;26.95;17.35;;;12.50;99.90;;;;;;5054682;28;20395;-67
2022/10/21 03:34:52;;;;;;;23.05;17.10;;;12.50;99.90;;;;;;5035421;28;20044;-67
2022/10/21 03:37:18;;;;;;;24.23;18.08;;;12.60;99.90;;;;;;5056394;28;20032;-68
2022/10/21 03:39:43;;;;;;;24.63;17.45;;;12.60;99.90;;;;;;5053146;28;20453;-70
2022/10/21 03:42:09;;;;;;;22.95;16.70;;;12.60;99.90;;;;;;5054967;28;20045;-67
2022/10/21 03:44:35;;;;;;;22.05;15.75;;;12.60;99.90;;;;;;5061848;28;20140;-67
2022/10/21 03:47:00;;;;;;;23.92;17.98;;;12.60;99.90;;;;;;5069080;28;20517;-69
2022/10/21 03:49:26;;;;;;;20.60;15.75;;;12.60;99.90;;;;;;5069052;28;20043;-68
2022/10/21 03:51:51;;;;;;;24.00;17.02;;;12.60;99.90;;;;;;5073047;28;20032;-68
2022/10/21 03:54:17;;;;;;;24.60;18.30;;;12.70;99.90;;;;;;5056787;28;20060;-69
2022/10/21 03:56:43;;;;;;;26.40;18.08;;;12.70;99.90;;;;;;5053967;28;20052;-68
2022/10/21 03:59:09;;;;;;;24.13;17.73;;;12.70;99.90;;;;;;5069837;28;20093;-67
2022/10/21 04:01:34;;;;;;;25.33;17.65;;;12.70;99.90;;;;;;5069746;28;20048;-69
2022/10/21 04:04:00;;;;;;;24.13;17.40;;;12.70;99.90;;;;;;5071531;28;20036;-68
2022/10/21 04:06:26;;;;;;;28.23;18.55;;;12.70;99.90;;;;;;5055484;28;20051;-68
2022/10/21 04:08:51;;;;;;;23.90;17.23;;;12.70;99.90;;;;;;5071269;28;20414;-67
2022/10/21 04:11:17;;;;;;;30.65;18.55;;;12.70;99.90;;;;;;5056512;28;20047;-69
2022/10/21 04:13:43;;;;;;;29.65;18.08;;;12.70;99.90;;;;;;5073491;28;20483;-68
2022/10/21 04:16:14;;;;;;;24.65;17.73;;;12.70;99.90;;;;;;5070655;28;20055;-68
2022/10/21 04:18:39;;;;;;;27.33;18.73;;;12.70;99.90;;;;;;5069922;28;20035;-68
2022/10/21 04:21:05;;;;;;;27.80;17.88;;;12.70;99.90;;;;;;5071743;28;20032;-68
2022/10/21 04:23:31;;;;;;;25.02;17.90;;;12.70;99.90;;;;;;5070746;28;20123;-68
2022/10/21 04:25:57;;;;;;;26.83;17.92;;;12.70;99.90;;;;;;5070708;28;20116;-69
2022/10/21 04:28:22;;;;;;;26.65;18.65;;;12.70;99.90;;;;;;5071722;28;20074;-68
2022/10/21 04:30:49;;;;;;;26.38;16.98;;;12.70;99.90;;;;;;5055639;28;20499;-69
2022/10/21 04:33:14;;;;;;;32.40;18.90;;;12.70;99.90;;;;;;5054737;28;20047;-67
2022/10/21 04:35:40;;;;;;;29.05;17.83;;;12.70;99.90;;;;;;5086474;28;20391;-69
2022/10/21 04:38:06;;;;;;;29.77;17.95;;;12.70;99.90;;;;;;5071850;28;20197;-69
2022/10/21 04:40:31;;;;;;;31.25;19.42;;;12.70;99.90;;;;;;5071498;28;20042;-68
2022/10/21 04:42:57;;;;;;;27.45;18.45;;;12.70;99.90;;;;;;5066088;28;20036;-67
2022/10/21 04:45:22;;;;;;;30.33;18.17;;;12.70;99.90;;;;;;5053909;28;20139;-67
2022/10/21 04:47:48;;;;;;;29.75;18.42;;;12.70;99.90;;;;;;5071082;28;20063;-68
2022/10/21 04:50:14;;;;;;;30.15;18.35;;;12.70;99.90;;;;;;5069282;28;20039;-69
2022/10/21 04:52:39;;;;;;;31.77;19.38;;;12.70;99.90;;;;;;5069743;28;20050;-68
2022/10/21 04:55:06;;;;;;;30.95;20.15;;;12.70;99.90;;;;;;5071783;28;20044;-69
2022/10/21 04:57:31;;;;;;;25.67;17.80;;;12.70;99.90;;;;;;5070768;28;20085;-69
2022/10/21 04:59:57;;;;;;;29.48;17.25;;;12.70;99.90;;;;;;5053582;28;20465;-67
2022/10/21 05:02:23;;;;;;;29.02;17.88;;;12.70;99.90;;;;;;5071421;28;20113;-69
2022/10/21 05:04:49;;;;;;;31.17;19.23;;;12.70;99.90;;;;;;5089396;28;20040;-68
2022/10/21 05:07:14;;;;;;;29.38;18.63;;;12.70;99.90;;;;;;5073020;28;20040;-67
2022/10/21 05:09:40;;;;;;;30.73;18.65;;;12.70;99.90;;;;;;5069112;28;20047;-69
2022/10/21 05:12:06;;;;;;;25.33;18.25;;;12.70;99.90;;;;;;5088164;28;20048;-68
2022/10/21 05:14:31;;;;;;;38.63;19.33;;;12.70;99.90;;;;;;5073875;28;20032;-69
2022/10/21 05:16:57;;;;;;;26.77;17.80;;;12.70;99.90;;;;;;5071713;28;20419;-67
2022/10/21 05:19:23;;;;;;;29.20;18.92;;;12.70;99.90;;;;;;5073545;28;20031;-69
2022/10/21 05:21:48;;;;;;;26.98;17.38;;;12.70;99.90;;;;;;5055743;28;20163;-68
2022/10/21 05:24:15;;;;;;;27.30;18.00;;;12.70;99.90;;;;;;5072822;28;20040;-68
2022/10/21 05:26:40;;;;;;;31.13;18.35;;;12.60;99.90;;;;;;5072819;28;20085;-68
2022/10/21 05:29:06;;;;;;;30.08;18.55;;;12.70;99.90;;;;;;5072937;28;20048;-67
2022/10/21 05:31:32;;;;;;;26.77;18.10;;;12.70;99.90;;;;;;5074129;28;20036;-68
2022/10/21 05:33:58;;;;;;;25.48;17.92;;;12.60;99.90;;;;;;5071282;28;20040;-68
2022/10/21 05:36:24;;;;;;;29.45;18.73;;;12.60;99.90;;;;;;5072495;28;20366;-67
2022/10/21 05:38:49;;;;;;;32.47;18.90;;;12.60;99.90;;;;;;5072224;28;20060;-67
2022/10/21 05:41:15;;;;;;;27.52;17.85;;;12.60;99.90;;;;;;5071549;28;20074;-69
2022/10/21 05:43:41;;;;;;;30.10;18.55;;;12.60;99.90;;;;;;5051880;28;20052;-69
2022/10/21 05:46:08;;;;;;;29.42;18.30;;;12.60;99.90;;;;;;5086548;28;20114;-68
2022/10/21 05:48:35;;;;;;;28.20;18.23;;;12.70;99.90;;;;;;5068797;28;20058;-68
2022/10/21 05:51:01;;;;;;;26.20;17.38;;;12.70;99.90;;;;;;5068301;28;20048;-67
2022/10/21 05:53:26;;;;;;;28.17;18.02;;;12.70;99.90;;;;;;5053850;28;20044;-66
2022/10/21 05:56:01;;;;;;;30.63;18.80;;;12.70;99.90;;;;;;5066410;28;20062;-67
2022/10/21 05:58:28;;;;;;;28.92;18.88;;;12.70;99.90;;;;;;5071064;28;20115;-68
2022/10/21 06:00:54;;;;;;;29.77;18.55;;;12.70;99.90;;;;;;5070056;28;20051;-68
2022/10/21 06:03:30;;;;;;;27.77;17.98;;;12.70;99.90;;;;;;5072251;28;20032;-68
2022/10/21 06:05:57;;;;;;;31.73;18.65;;;12.80;99.90;;;;;;5070513;28;20044;-69
2022/10/21 06:08:23;;;;;;;29.92;18.02;;;12.80;99.90;;;;;;5088852;28;20394;-68
2022/10/21 06:10:58;;;;;;;23.67;16.35;;;12.80;99.90;;;;;;5070421;28;20028;-68
2022/10/21 06:13:23;;;;;;;26.92;17.73;;;12.80;99.90;;;;;;5072165;28;20048;-68
2022/10/21 06:15:49;;;;;;;26.02;16.98;;;12.80;99.90;;;;;;5066704;28;20111;-68
2022/10/21 06:18:14;;;;;;;25.50;17.83;;;12.80;99.90;;;;;;5073422;28;20398;-69
2022/10/21 06:20:40;;;;;;;24.35;17.30;;;12.90;99.90;;;;;;5068076;28;20086;-69
2022/10/21 06:23:06;;;;;;;26.77;17.92;;;12.80;99.90;;;;;;5072990;28;21518;-67
2022/10/21 06:25:31;;;;;;;21.35;16.13;;;12.90;99.90;;;;;;5073828;28;20051;-68
2022/10/21 06:27:57;;;;;;;26.10;17.65;;;12.90;99.90;;;;;;5057840;28;20058;-69
2022/10/21 06:30:22;;;;;;;25.38;16.33;;;12.90;99.90;;;;;;5073653;28;20040;-68
2022/10/21 06:32:48;;;;;;;25.65;17.33;;;12.90;99.90;;;;;;5073190;28;20475;-68
2022/10/21 06:35:14;;;;;;;21.77;15.73;;;12.90;99.90;;;;;;5071407;28;20043;-68
2022/10/21 06:37:40;;;;;;;26.17;17.23;;;12.90;99.90;;;;;;5072408;28;20047;-69
2022/10/21 06:40:06;;;;;;;27.30;17.77;;;12.90;99.90;;;;;;5074320;28;20036;-67
2022/10/21 06:42:31;;;;;;;25.00;15.93;;;12.90;99.90;;;;;;5075528;28;20040;-69
2022/10/21 06:44:57;;;;;;;27.70;17.83;;;13.00;99.90;;;;;;5072226;28;20078;-67
2022/10/21 06:47:23;;;;;;;25.00;15.60;;;13.00;99.90;;;;;;5071370;28;20040;-68
2022/10/21 06:49:49;;;;;;;18.67;13.73;;;13.10;99.90;;;;;;5073777;28;20044;-68
2022/10/21 06:52:14;;;;;;;26.83;16.10;;;13.10;99.90;;;;;;5073319;28;20043;-67
2022/10/21 06:54:40;;;;;;;23.92;14.93;;;13.10;99.90;;;;;;5071989;28;20040;-67
2022/10/21 06:57:05;;;;;;;20.33;14.77;;;13.10;99.90;;;;;;5072712;28;20078;-69
2022/10/21 06:59:31;;;;;;;21.20;14.93;;;13.10;99.90;;;;;;5072177;28;20513;-67
2022/10/21 07:01:57;;;;;;;24.02;15.27;;;13.20;99.90;;;;;;5072269;28;20055;-70
2022/10/21 07:04:22;;;;;;;22.50;15.10;;;13.20;99.90;;;;;;5072767;28;20162;-68
2022/10/21 07:06:48;;;;;;;21.70;14.48;;;13.10;99.90;;;;;;5073571;28;20046;-68
2022/10/21 07:09:13;;;;;;;23.35;15.05;;;13.10;99.90;;;;;;5072790;28;20507;-66
2022/10/21 07:11:39;;;;;;;20.92;15.75;;;13.10;99.90;;;;;;5072182;28;20387;-67
2022/10/21 07:14:06;;;;;;;24.23;15.15;;;13.10;99.90;;;;;;5073580;28;20209;-68
2022/10/21 07:16:34;;;;;;;22.10;15.30;;;13.10;99.90;;;;;;5071782;28;20039;-69
2022/10/21 07:18:59;;;;;;;22.42;15.00;;;13.10;99.90;;;;;;5071033;28;20878;-66
2022/10/21 07:21:27;;;;;;;23.75;14.35;;;13.10;99.90;;;;;;5069394;28;20040;-67
2022/10/21 07:23:55;;;;;;;20.15;13.45;;;13.10;99.90;;;;;;5054299;28;20048;-67
2022/10/21 07:26:22;;;;;;;20.52;14.65;;;13.10;99.90;;;;;;5071719;28;20036;-68
2022/10/21 07:28:48;;;;;;;23.40;15.25;;;13.10;99.90;;;;;;5069426;28;20039;-67
2022/10/21 07:31:15;;;;;;;22.98;14.95;;;13.10;99.90;;;;;;5071247;28;20040;-67
2022/10/21 07:33:41;;;;;;;22.98;14.63;;;13.10;99.90;;;;;;5070687;28;20039;-68
2022/10/21 07:36:19;;;;;;;20.35;14.20;;;13.10;99.90;;;;;;5072540;28;20394;-72
2022/10/21 07:38:47;;;;;;;23.23;14.32;;;13.10;99.90;;;;;;5071375;28;20082;-69
2022/10/21 07:41:15;;;;;;;23.23;14.15;;;13.10;99.90;;;;;;5073234;28;20130;-67
2022/10/21 07:43:40;;;;;;;21.42;15.30;;;13.10;99.90;;;;;;5063983;28;20050;-68
2022/10/21 07:46:06;;;;;;;21.15;15.02;;;13.20;99.90;;;;;;5057333;28;20464;-67
2022/10/21 07:48:31;;;;;;;21.60;14.93;;;13.20;99.90;;;;;;5069686;28;20509;-66
2022/10/21 07:51:06;;;;;;;21.88;15.02;;;13.20;99.90;;;;;;5073098;28;20488;-67
2022/10/21 07:53:33;;;;;;;18.98;13.90;;;13.30;99.90;;;;;;5072045;28;20043;-67
2022/10/21 07:56:08;;;;;;;22.42;15.30;;;13.30;99.90;;;;;;5073459;28;20101;-67
2022/10/21 07:58:34;;;;;;;17.83;13.77;;;13.40;99.90;;;;;;5070417;28;20035;-67
2022/10/21 08:01:01;;;;;;;24.08;15.07;;;13.50;99.90;;;;;;5055676;28;20388;-67
2022/10/21 08:03:27;;;;;;;22.15;14.80;;;13.60;99.90;;;;;;5071675;28;20043;-67
2022/10/21 08:05:53;;;;;;;21.02;15.00;;;13.60;99.90;;;;;;5073130;28;20114;-67
2022/10/21 08:08:22;;;;;;;20.52;14.38;;;13.70;99.90;;;;;;5071183;28;20036;-67
2022/10/21 08:10:49;;;;;;;22.50;15.27;;;13.80;99.90;;;;;;5072567;28;20044;-67
2022/10/21 08:13:15;;;;;;;20.48;14.15;;;13.90;99.90;;;;;;5053543;28;20048;-67
2022/10/21 08:15:46;;;;;;;18.83;12.88;;;14.00;99.90;;;;;;5072915;28;20043;-67
2022/10/21 08:18:12;;;;;;;29.05;14.07;;;14.10;99.90;;;;;;5073580;28;20490;-67
2022/10/21 08:20:39;;;;;;;19.60;13.02;;;14.10;99.90;;;;;;5068501;28;20043;-65
2022/10/21 08:23:05;;;;;;;21.50;13.82;;;14.20;99.90;;;;;;5071876;28;20399;-67
2022/10/21 08:25:30;;;;;;;19.58;13.45;;;14.30;99.90;;;;;;5055199;28;20052;-69
2022/10/21 08:27:56;;;;;;;17.35;12.82;;;14.40;99.90;;;;;;5070970;28;20124;-66
2022/10/21 08:30:22;;;;;;;21.42;13.43;;;14.50;99.90;;;;;;5069906;28;20036;-67
2022/10/21 08:32:47;;;;;;;19.73;13.02;;;14.60;99.90;;;;;;5055350;28;20052;-67
2022/10/21 08:35:13;;;;;;;18.13;13.38;;;14.60;99.90;;;;;;5071079;28;20032;-66
2022/10/21 08:37:38;;;;;;;17.60;12.57;;;14.70;99.90;;;;;;5071673;28;20036;-67
2022/10/21 08:40:05;;;;;;;18.77;11.82;;;14.70;99.90;;;;;;5070399;28;20036;-65
2022/10/21 08:42:30;;;;;;;16.95;12.40;;;14.80;99.90;;;;;;5073108;28;20050;-66
2022/10/21 08:45:06;;;;;;;16.98;11.93;;;14.80;99.90;;;;;;5079835;28;20134;-68
2022/10/21 08:47:49;;;;;;;16.90;11.95;;;14.80;99.90;;;;;;5084762;28;20052;-66
2022/10/21 08:50:19;;;;;;;17.05;11.60;;;14.90;99.90;;;;;;5088564;28;20047;-67
2022/10/21 08:52:56;;;;;;;15.57;11.82;;;15.00;99.90;;;;;;5072793;28;20048;-67
2022/10/21 08:55:36;;;;;;;17.80;12.35;;;15.20;99.90;;;;;;5082273;28;20490;-66
2022/10/21 08:58:03;;;;;;;15.75;11.40;;;15.40;99.90;;;;;;5089229;28;20047;-68
2022/10/21 09:00:45;;;;;;;15.00;11.23;;;15.50;99.90;;;;;;5089253;28;20047;-67
2022/10/21 09:03:33;;;;;;;16.15;11.45;;;15.60;99.90;;;;;;5089211;28;20068;-67
2022/10/21 09:06:09;;;;;;;13.20;10.50;;;15.70;99.90;;;;;;5089798;28;20075;-67
2022/10/21 09:09:01;;;;;;;16.83;10.70;;;15.70;99.90;;;;;;5088962;28;20053;-66
2022/10/21 09:11:34;;;;;;;15.38;10.02;;;15.70;99.90;;;;;;5088867;28;20123;-66
2022/10/21 09:14:34;;;;;;;16.70;9.75;;;15.70;99.90;;;;;;5090228;28;20035;-68
2022/10/21 09:17:02;;;;;;;16.30;10.27;;;15.60;99.90;;;;;;5089520;28;20048;-66
2022/10/21 09:20:00;;;;;;;15.15;10.52;;;15.70;99.90;;;;;;5088823;28;20123;-68
2022/10/21 09:22:57;;;;;;;14.00;9.75;;;15.70;99.90;;;;;;5089394;28;20483;-67
2022/10/21 09:25:31;;;;;;;12.80;9.82;;;15.80;99.90;;;;;;5087429;28;20123;-66
2022/10/21 09:27:58;;;;;;;17.33;9.43;;;15.90;99.90;;;;;;5069926;28;20384;-67
2022/10/21 09:30:24;;;;;;;14.50;9.43;;;16.00;99.90;;;;;;5088625;28;20040;-67
2022/10/21 09:32:54;;;;;;;11.48;8.80;;;16.10;99.90;;;;;;5089366;28;20410;-68
2022/10/21 09:35:23;;;;;;;12.80;9.27;;;16.20;99.90;;;;;;5089310;28;20054;-67
2022/10/21 09:38:28;;;;;;;15.13;8.77;;;16.30;99.90;;;;;;5088766;28;20039;-68
2022/10/21 09:41:02;;;;;;;15.45;9.18;;;16.30;99.90;;;;;;5088727;28;20364;-66
2022/10/21 09:43:28;;;;;;;13.90;8.55;;;16.30;99.90;;;;;;5082639;28;20521;-67
2022/10/21 09:45:54;;;;;;;13.80;8.85;;;16.30;99.90;;;;;;5086755;28;20056;-65
2022/10/21 09:48:40;;;;;;;14.25;8.45;;;16.30;99.90;;;;;;5089271;28;20067;-67
2022/10/21 09:51:25;;;;;;;11.05;8.05;;;16.30;99.90;;;;;;5089404;28;20244;-68
2022/10/21 09:53:56;;;;;;;13.30;8.23;;;16.20;99.90;;;;;;5091837;28;20040;-66
2022/10/21 09:56:32;;;;;;;13.88;8.18;;;16.20;99.90;;;;;;5093433;28;20110;-66
2022/10/21 09:59:13;;;;;;;16.67;8.38;;;16.10;99.90;;;;;;5090802;28;20048;-66
2022/10/21 10:01:41;;;;;;;11.77;8.38;;;16.20;99.90;;;;;;5090625;28;20043;-66
2022/10/21 10:04:22;;;;;;;10.70;6.95;;;16.10;99.90;;;;;;5089276;28;20075;-68
2022/10/21 10:06:48;;;;;;;14.98;8.18;;;16.10;99.90;;;;;;5092616;28;20076;-68
2022/10/21 10:09:14;;;;;;;11.35;8.55;;;16.20;99.90;;;;;;5087991;28;20155;-66
2022/10/21 10:11:55;;;;;;;11.95;6.95;;;16.20;99.90;;;;;;5090929;28;20110;-67
2022/10/21 10:14:24;;;;;;;10.43;7.43;;;16.20;99.90;;;;;;5090449;28;20107;-67
2022/10/21 10:16:50;;;;;;;11.52;7.43;;;16.20;99.90;;;;;;5091615;28;20043;-66
2022/10/21 10:19:23;;;;;;;10.45;7.15;;;16.20;99.90;;;;;;5092029;28;20047;-66
2022/10/21 10:22:13;;;;;;;11.60;7.10;;;16.20;99.90;;;;;;5090587;28;20040;-67
2022/10/21 10:24:41;;;;;;;8.32;6.63;;;16.20;99.90;;;;;;5091134;28;20044;-67
2022/10/21 10:27:19;;;;;;;10.57;7.30;;;16.30;99.90;;;;;;5075392;28;20052;-67
2022/10/21 10:29:51;;;;;;;9.80;7.50;;;16.20;99.90;;;;;;5123377;27;20123;-66
2022/10/21 10:32:17;;;;;;;11.10;7.45;;;16.20;99.90;;;;;;5087437;28;20040;-67
2022/10/21 10:34:54;;;;;;;11.75;7.07;;;16.30;99.90;;;;;;5070954;28;20109;-67
2022/10/21 10:37:26;;;;;;;9.82;6.57;;;16.20;99.90;;;;;;5090750;28;20044;-67
2022/10/21 10:39:53;;;;;;;;;;;16.30;99.90;;;;;;5091920;28;20075;-67
2022/10/21 10:42:22;;;;;;;10.50;6.32;;;16.30;99.90;;;;;;5090447;28;20300;-67
2022/10/21 10:44:53;;;;;;;10.45;6.10;;;16.40;99.90;;;;;;5089945;28;20117;-67
2022/10/21 10:47:27;;;;;;;12.40;7.05;;;16.40;99.90;;;;;;5074747;28;20575;-67
2022/10/21 10:49:53;;;;;;;10.65;6.70;;;16.50;99.90;;;;;;5089571;28;20170;-67
2022/10/21 10:52:23;;;;;;;10.93;6.53;;;16.50;99.90;;;;;;5088734;28;20115;-67
2022/10/21 10:55:12;;;;;;;12.77;6.65;;;16.60;99.90;;;;;;5089960;28;20038;-67
2022/10/21 10:57:41;;;;;;;11.55;6.32;;;16.60;99.90;;;;;;5088815;28;20677;-67
2022/10/21 11:00:16;;;;;;;9.55;6.43;;;16.60;99.90;;;;;;5070520;28;20048;-67
2022/10/21 11:03:06;;;;;;;14.02;7.30;;;16.60;99.90;;;;;;5088981;28;20113;-67
2022/10/21 11:05:43;;;;;;;10.18;6.28;;;16.60;99.90;;;;;;5091540;28;20050;-66
2022/10/21 11:08:22;;;;;;;10.95;5.97;;;16.60;99.90;;;;;;5090243;28;20047;-68
2022/10/21 11:10:55;;;;;;;10.18;5.78;;;16.60;99.90;;;;;;5090158;28;20036;-65
2022/10/21 11:13:23;;;;;;;12.27;6.03;;;16.60;99.90;;;;;;5074534;28;20127;-67
2022/10/21 11:16:23;;;;;;;12.05;6.35;;;16.60;99.90;;;;;;5090789;28;20032;-67
2022/10/21 11:19:14;;;;;;;9.20;6.00;;;16.60;99.90;;;;;;5091008;28;20119;-66
2022/10/21 11:21:50;;;;;;;15.77;6.30;;;16.60;99.90;;;;;;5091145;28;20043;-67
2022/10/21 11:24:31;;;;;;;8.02;5.88;;;16.60;99.90;;;;;;5090465;28;20048;-68
2022/10/21 11:27:03;;;;;;;12.30;6.40;;;16.60;99.90;;;;;;5088782;28;20135;-67
2022/10/21 11:29:46;;;;;;;8.00;5.88;;;16.60;99.90;;;;;;5072873;28;20040;-67
2022/10/21 11:32:42;;;;;;;11.23;6.00;;;16.60;99.90;;;;;;5091080;28;20062;-67
2022/10/21 11:35:59;;;;;;;7.75;6.32;;;16.60;99.90;;;;;;5074441;28;20054;-66
2022/10/21 11:38:52;;;;;;;11.10;6.07;;;16.60;99.90;;;;;;4997747;28;20385;-67
2022/10/21 11:41:23;;;;;;;8.90;5.53;;;16.60;99.90;;;;;;4991994;28;20050;-67
2022/10/21 11:44:14;;;;;;;10.97;6.07;;;16.60;99.90;;;;;;4992947;28;20400;-67
2022/10/21 11:47:04;;;;;;;10.23;6.50;;;16.60;99.90;;;;;;4994116;28;20318;-67
2022/10/21 11:49:59;;;;;;;11.63;6.50;;;16.70;99.90;;;;;;4993595;28;20060;-67
2022/10/21 11:52:31;;;;;;;10.18;6.25;;;16.70;99.90;;;;;;5002393;28;20053;-67
2022/10/21 11:55:15;;;;;;;10.23;5.57;;;16.70;99.90;;;;;;4993814;28;20049;-65
2022/10/21 11:58:01;;;;;;;10.10;6.95;;;16.70;99.90;;;;;;4996205;28;20480;-68
2022/10/21 12:00:31;;;;;;;10.65;6.85;;;16.80;99.90;;;;;;4981637;28;20045;-68
2022/10/21 12:03:03;;;;;;;8.75;6.57;;;16.80;99.90;;;;;;4994703;28;20038;-66
2022/10/21 12:05:37;;;;;;;9.70;5.68;;;16.80;99.90;;;;;;4999267;28;20045;-67
2022/10/21 12:08:15;;;;;;;9.45;5.38;;;16.80;99.90;;;;;;4975850;28;20069;-65
2022/10/21 12:11:03;;;;;;;11.15;6.50;;;16.80;99.90;;;;;;4993298;28;20054;-66
2022/10/21 12:13:41;;;;;;;10.85;6.05;;;16.80;99.90;;;;;;5030034;28;20052;-66
2022/10/21 12:16:15;;;;;;;14.55;5.85;;;16.80;99.90;;;;;;5090462;28;20523;-65
2022/10/21 12:18:49;;;;;;;9.75;5.88;;;16.80;99.90;;;;;;5089614;28;20044;-66
2022/10/21 12:21:26;;;;;;;8.40;5.28;;;16.80;99.90;;;;;;5090467;28;20043;-65
2022/10/21 12:24:29;;;;;;;11.00;6.60;;;16.90;99.90;;;;;;5090424;28;20051;-67
2022/10/21 12:27:11;;;;;;;9.20;6.00;;;16.90;99.90;;;;;;5084993;28;20452;-65
2022/10/21 12:30:05;;;;;;;8.20;5.63;;;16.80;99.90;;;;;;5086261;28;20044;-66
2022/10/21 12:32:30;;;;;;;11.90;5.75;;;16.90;99.90;;;;;;5072707;28;20097;-66
2022/10/21 12:34:56;;;;;;;10.15;5.68;;;16.90;99.90;;;;;;5088621;28;20398;-66
2022/10/21 12:37:42;;;;;;;9.00;5.63;;;16.80;99.90;;;;;;5090047;28;20036;-65
2022/10/21 12:40:14;;;;;;;8.63;5.55;;;16.80;99.90;;;;;;5089566;28;20044;-66
2022/10/21 12:42:55;;;;;;;10.73;5.22;;;16.80;99.90;;;;;;5090230;28;20043;-66
2022/10/21 12:45:33;;;;;;;10.30;6.10;;;16.80;99.90;;;;;;5089348;28;20055;-67
2022/10/21 12:48:00;;;;;;;9.88;5.90;;;16.80;99.90;;;;;;5089912;28;20040;-68
2022/10/21 12:50:29;;;;;;;8.50;5.53;;;16.80;99.90;;;;;;5088958;28;20036;-68